Louisville International Standiford Field Louisville US
ICAO: KSDF
IATA: SDF
Category: Large
Scheduled Services: Yes

Elevation: 501 ft
TransAlt. 18000 ft.

Airport Communications:
APP:123.675
ATIS:118.725
CLNC DEL:126.1
DEP:123.675
GND:121.7
ANG OPS:26.81
TWR:124.2
UNICOM:122.95

KSDF Zoom In..

Runways:

(A) RW 11 length 7250 ft width 150 ft
LOC 109.10 / hdg 114

(B) RW 17L length 8579 ft width 150 ft
ILS 111.95 / hdg 168

(C) RW 17R length 11887 ft width 150 ft
ILS 110.30 / hdg 168

(D) RW 29 length 7250 ft width 150 ft
LOC 109.10 / hdg 294

(E) RW 35L length 11887 ft width 150 ft
ILS 109.35 / hdg 348

(F) RW 35R length 8579 ft width 150 ft
ILS 110.55 / hdg 348

Location; KSDF
Day. 17 / Time. 06.56 Zulu
* Altimeter: 29.93
* Temperature: 26° c. 78.8°f.
* Wind from: 230° Speed 03 kn.
Dewpoint: 23° c.
Visibility: 9 Statute Miles.
Clouds: Few 4000 ft.
Clouds: Few 6000 ft.
Clouds: Scattered 25000 ft.

KSDF 170656Z 23003KT 9SM FEW040 FEW060 SCT250 26/23 A2993 RMK AO2 SLP128 T02610228


Wind From 230°
Speed 03 kn.

 
 
jpsmedia.com for Web Design worldairports.se 2018   terms of use